createdAt,value
2022-11-21T00:01:39.294Z,100355.16
2022-11-21T00:04:08.385Z,100348.09
2022-11-21T00:06:37.411Z,100352.94
2022-11-21T00:09:06.435Z,100347.03
2022-11-21T00:11:35.544Z,100345.53
2022-11-21T00:14:04.708Z,100344.97
2022-11-21T00:16:35.165Z,100350.03
2022-11-21T00:19:05.441Z,100347.31
2022-11-21T00:21:34.603Z,100339.53
2022-11-21T00:24:03.674Z,100335.94
2022-11-21T00:26:32.692Z,100335.22
2022-11-21T00:29:01.714Z,100340.28
2022-11-21T00:31:31.309Z,100332.88
2022-11-21T00:34:01.703Z,100334.25
2022-11-21T00:36:30.736Z,100337.91
2022-11-21T00:38:59.797Z,100339.75
2022-11-21T00:41:28.796Z,100336.84
2022-11-21T00:43:57.790Z,100320.63
2022-11-21T00:46:26.857Z,100322.91
2022-11-21T00:48:55.884Z,100316.59
2022-11-21T00:51:26.363Z,100317.38
2022-11-21T00:53:55.398Z,100304.13
2022-11-21T00:56:24.464Z,100307.16
2022-11-21T00:58:53.502Z,100305.94
2022-11-21T01:01:22.668Z,100306.41
2022-11-21T01:03:51.766Z,100302.41
2022-11-21T01:06:20.816Z,100298.72
2022-11-21T01:08:51.250Z,100310.63
2022-11-21T01:11:22.023Z,100309.81
2022-11-21T01:13:54.128Z,100309.91
2022-11-21T01:16:24.828Z,100322.06
2022-11-21T01:18:54.295Z,100316.16
2022-11-21T01:21:25.528Z,100321.22
2022-11-21T01:23:56.351Z,100318.47
2022-11-21T01:26:27.638Z,100305.41
2022-11-21T01:28:58.064Z,100310.66
2022-11-21T01:31:29.406Z,100307.88
2022-11-21T01:34:00.030Z,100306.06
2022-11-21T01:36:30.768Z,100305.91
2022-11-21T01:39:02.584Z,100315.41
2022-11-21T01:41:33.644Z,100320.53
2022-11-21T01:44:03.265Z,100313.56
2022-11-21T01:46:32.320Z,100314.66
2022-11-21T01:49:07.719Z,100311.81
2022-11-21T01:51:41.634Z,100317.97
2022-11-21T01:54:15.668Z,100315.28
2022-11-21T01:56:50.384Z,100316.34
2022-11-21T01:59:24.106Z,100315.44
2022-11-21T02:01:55.109Z,100314.78
2022-11-21T02:04:27.453Z,100322.56
2022-11-21T02:06:56.820Z,100319.03
2022-11-21T02:09:27.580Z,100316.47
2022-11-21T02:11:59.573Z,100319.78
2022-11-21T02:14:30.177Z,100316.00
2022-11-21T02:17:02.898Z,100322.09
2022-11-21T02:19:39.429Z,100323.19
2022-11-21T02:22:16.227Z,100322.31
2022-11-21T02:24:50.382Z,100318.06
2022-11-21T02:27:20.814Z,100321.41
2022-11-21T02:29:49.902Z,100315.56
2022-11-21T02:32:23.772Z,100313.66
2022-11-21T02:34:52.844Z,100315.03
2022-11-21T02:37:21.993Z,100306.41
2022-11-21T02:39:51.625Z,100308.50
2022-11-21T02:42:29.576Z,100303.69
2022-11-21T02:45:06.356Z,100305.34
2022-11-21T02:47:36.984Z,100296.16
2022-11-21T02:50:14.267Z,100301.19
2022-11-21T02:52:43.675Z,100298.09
2022-11-21T02:55:13.494Z,100300.97
2022-11-21T02:57:44.201Z,100290.19
2022-11-21T03:00:14.029Z,100287.72
2022-11-21T03:02:43.344Z,100291.34
2022-11-21T03:05:15.180Z,100287.19
2022-11-21T03:07:44.670Z,100295.31
2022-11-21T03:10:14.007Z,100283.81
2022-11-21T03:12:45.403Z,100289.19
2022-11-21T03:15:16.303Z,100276.53
2022-11-21T03:17:49.142Z,100277.25
2022-11-21T03:20:18.187Z,100272.00
2022-11-21T03:22:47.232Z,100268.63
2022-11-21T03:25:16.383Z,100266.88
2022-11-21T03:27:46.796Z,100267.63
2022-11-21T03:30:16.514Z,100270.25
2022-11-21T03:32:45.621Z,100263.75
2022-11-21T03:35:14.987Z,100269.94
2022-11-21T03:37:44.088Z,100276.22
2022-11-21T03:40:13.877Z,100273.53
2022-11-21T03:42:42.895Z,100272.66
2022-11-21T03:45:13.376Z,100275.09
2022-11-21T03:47:43.300Z,100272.41
2022-11-21T03:50:15.036Z,100273.94
2022-11-21T03:52:44.053Z,100272.38
2022-11-21T03:55:13.128Z,100279.25
2022-11-21T03:57:42.167Z,100273.59
2022-11-21T04:00:14.565Z,100280.44
2022-11-21T04:02:43.626Z,100282.09
2022-11-21T04:05:12.692Z,100279.97
2022-11-21T04:07:41.771Z,100285.56
2022-11-21T04:10:11.461Z,100281.63
2022-11-21T04:12:40.512Z,100274.94
2022-11-21T04:15:13.690Z,100282.66
2022-11-21T04:17:44.504Z,100290.38
2022-11-21T04:20:13.739Z,100285.28
2022-11-21T04:22:43.396Z,100289.00
2022-11-21T04:25:13.697Z,100292.47
2022-11-21T04:27:42.729Z,100296.00
2022-11-21T04:30:12.784Z,100299.72
2022-11-21T04:32:44.074Z,100299.56
2022-11-21T04:35:13.101Z,100292.84
2022-11-21T04:37:42.151Z,100304.06
2022-11-21T04:40:12.440Z,100301.56
2022-11-21T04:42:43.444Z,100303.38
2022-11-21T04:45:13.793Z,100300.00
2022-11-21T04:47:45.809Z,100303.38
2022-11-21T04:50:16.964Z,100301.72
2022-11-21T04:52:51.040Z,100299.44
2022-11-21T04:55:20.530Z,100306.00
2022-11-21T04:57:49.715Z,100306.53
2022-11-21T05:00:24.240Z,100310.19
2022-11-21T05:02:55.017Z,100307.06
2022-11-21T05:05:24.081Z,100307.06
2022-11-21T05:07:53.097Z,100304.63
2022-11-21T05:10:22.187Z,100306.50
2022-11-21T05:13:15.983Z,100306.13
2022-11-21T05:15:45.019Z,100304.41
2022-11-21T05:18:15.411Z,100303.66
2022-11-21T05:20:44.470Z,100304.56
2022-11-21T05:23:13.499Z,100295.16
2022-11-21T05:25:42.528Z,100299.63
2022-11-21T05:28:11.581Z,100297.94
2022-11-21T05:30:40.662Z,100299.72
2022-11-21T05:33:09.647Z,100307.72
2022-11-21T05:35:43.447Z,100302.13
2022-11-21T05:38:13.018Z,100308.34
2022-11-21T05:40:42.273Z,100301.38
2022-11-21T05:43:30.109Z,100296.38
2022-11-21T05:45:59.325Z,100295.97
2022-11-21T05:48:28.439Z,100285.59
2022-11-21T05:50:58.863Z,100288.88
2022-11-21T05:53:28.724Z,100279.44
2022-11-21T05:56:02.838Z,100283.84
2022-11-21T05:58:32.943Z,100288.47
2022-11-21T06:01:03.775Z,100295.81
2022-11-21T06:03:36.167Z,100294.19
2022-11-21T06:06:11.950Z,100297.31
2022-11-21T06:08:43.512Z,100301.72
2022-11-21T06:11:15.098Z,100302.41
2022-11-21T06:13:44.964Z,100294.03
2022-11-21T06:16:15.852Z,100292.88
2022-11-21T06:18:46.388Z,100296.22
2022-11-21T06:21:18.915Z,100299.09
2022-11-21T06:23:48.898Z,100292.03
2022-11-21T06:26:20.494Z,100287.44
2022-11-21T06:28:49.769Z,100296.06
2022-11-21T06:31:20.649Z,100296.22
2022-11-21T06:33:53.976Z,100286.06
2022-11-21T06:36:24.613Z,100293.19
2022-11-21T06:38:55.590Z,100291.72
2022-11-21T06:41:26.655Z,100287.22
2022-11-21T06:43:55.752Z,100293.72
2022-11-21T06:46:24.866Z,100292.19
2022-11-21T06:48:54.882Z,100288.94
2022-11-21T06:51:26.277Z,100295.72
2022-11-21T06:53:57.377Z,100303.47
2022-11-21T06:56:27.313Z,100294.88
2022-11-21T06:58:56.951Z,100301.44
2022-11-21T07:01:26.430Z,100298.66
2022-11-21T07:03:56.158Z,100303.88
2022-11-21T07:06:27.173Z,100305.09
2022-11-21T07:09:25.198Z,100305.88
2022-11-21T07:11:45.766Z,100306.00
2022-11-21T07:14:13.839Z,100302.44
2022-11-21T07:16:42.865Z,100303.44
2022-11-21T07:19:12.074Z,100310.00
2022-11-21T07:21:43.061Z,100307.56
2022-11-21T07:24:12.426Z,100309.41
2022-11-21T07:26:41.483Z,100309.44
2022-11-21T07:29:10.752Z,100309.44
2022-11-21T07:31:40.082Z,100300.81
2022-11-21T07:34:09.141Z,100304.13
2022-11-21T07:36:38.245Z,100300.72
2022-11-21T07:39:08.716Z,100299.63
2022-11-21T07:41:37.805Z,100309.84
2022-11-21T07:44:07.012Z,100297.66
2022-11-21T07:46:36.074Z,100300.28
2022-11-21T07:49:05.192Z,100299.38
2022-11-21T07:51:34.897Z,100300.22
2022-11-21T07:54:04.246Z,100295.03
2022-11-21T07:56:34.701Z,100293.00
2022-11-21T07:59:03.698Z,100290.44
2022-11-21T08:01:33.933Z,100284.03
2022-11-21T08:04:03.062Z,100290.41
2022-11-21T08:06:32.040Z,100284.22
2022-11-21T08:09:01.096Z,100284.94
2022-11-21T08:11:30.901Z,100284.00
2022-11-21T08:14:01.636Z,100279.63
2022-11-21T08:16:32.828Z,100283.75
2022-11-21T08:19:02.014Z,100279.00
2022-11-21T08:21:31.376Z,100283.88
2022-11-21T08:24:00.459Z,100282.75
2022-11-21T08:26:29.481Z,100280.66
2022-11-21T08:29:00.031Z,100283.84
2022-11-21T08:31:30.669Z,100273.16
2022-11-21T08:33:59.832Z,100276.16
2022-11-21T08:36:28.894Z,100277.00
2022-11-21T08:38:58.076Z,100285.69
2022-11-21T08:41:44.917Z,100286.44
2022-11-21T08:44:14.492Z,100277.50
2022-11-21T08:46:44.973Z,100276.34
2022-11-21T08:49:14.097Z,100266.16
2022-11-21T08:51:43.142Z,100272.25
2022-11-21T08:54:12.265Z,100269.84
2022-11-21T08:56:41.255Z,100259.72
2022-11-21T08:59:10.247Z,100266.97
2022-11-21T09:01:39.665Z,100267.59
2022-11-21T09:04:10.320Z,100263.00
2022-11-21T09:06:39.992Z,100258.28
2022-11-21T09:09:09.443Z,100267.19
2022-11-21T09:11:38.689Z,100259.59
2022-11-21T09:14:25.146Z,100259.16
2022-11-21T09:17:11.474Z,100262.63
2022-11-21T09:19:41.958Z,100256.97
2022-11-21T09:22:11.010Z,100273.19
2022-11-21T09:24:40.212Z,100278.00
2022-11-21T09:27:09.493Z,100272.56
2022-11-21T09:29:38.573Z,100274.16
2022-11-21T09:32:07.648Z,100282.56
2022-11-21T09:34:36.709Z,100284.59
2022-11-21T09:37:07.189Z,100281.53
2022-11-21T09:39:36.297Z,100279.06
2022-11-21T09:42:27.279Z,100271.97
2022-11-21T09:45:14.325Z,100269.44
2022-11-21T09:47:46.572Z,100271.25
2022-11-21T09:50:27.135Z,100281.44
2022-11-21T09:53:01.985Z,100276.69
2022-11-21T09:55:39.415Z,100273.59
2022-11-21T09:58:17.099Z,100281.38
2022-11-21T10:00:46.196Z,100281.19
2022-11-21T10:03:19.419Z,100273.84
2022-11-21T10:05:56.013Z,100266.91
2022-11-21T10:08:41.936Z,100262.28
2022-11-21T10:11:21.591Z,100254.75
2022-11-21T10:14:07.985Z,100258.81
2022-11-21T10:16:44.987Z,100269.59
2022-11-21T10:19:43.195Z,100259.22
2022-11-21T10:22:40.003Z,100278.88
2022-11-21T10:25:15.604Z,100267.97
2022-11-21T10:27:51.887Z,100261.66
2022-11-21T10:30:22.624Z,100263.22
2022-11-21T10:32:55.435Z,100253.75
2022-11-21T10:35:26.542Z,100256.16
2022-11-21T10:37:58.533Z,100254.94
2022-11-21T10:40:36.965Z,100256.00
2022-11-21T10:43:28.803Z,100258.66
2022-11-21T10:45:58.072Z,100262.56
2022-11-21T10:48:27.136Z,100260.00
2022-11-21T10:51:12.255Z,100267.84
2022-11-21T10:54:04.573Z,100265.06
2022-11-21T10:56:38.249Z,100254.06
2022-11-21T10:59:25.686Z,100265.28
2022-11-21T11:01:59.455Z,100257.97
2022-11-21T11:04:33.503Z,100240.00
2022-11-21T11:07:23.420Z,100246.84
2022-11-21T11:09:53.533Z,100239.59
2022-11-21T11:12:46.111Z,100233.66
2022-11-21T11:15:20.716Z,100241.09
2022-11-21T11:17:55.676Z,100231.41
2022-11-21T11:20:36.952Z,100236.31
2022-11-21T11:23:27.334Z,100229.19
2022-11-21T11:25:58.359Z,100223.56
2022-11-21T11:28:37.064Z,100230.44
2022-11-21T11:31:06.282Z,100225.00
2022-11-21T11:33:37.242Z,100223.06
2022-11-21T11:36:20.948Z,100224.91
2022-11-21T11:38:55.945Z,100216.53
2022-11-21T11:42:00.909Z,100214.75
2022-11-21T11:45:01.251Z,100204.78
2022-11-21T11:47:35.312Z,100197.59
2022-11-21T11:50:15.354Z,100204.59
2022-11-21T11:52:54.965Z,100208.47
2022-11-21T11:55:31.693Z,100210.06
2022-11-21T11:58:04.100Z,100200.91
2022-11-21T12:00:43.192Z,100205.53
2022-11-21T12:03:19.634Z,100193.34
2022-11-21T12:06:04.761Z,100190.66
2022-11-21T12:08:47.484Z,100190.75
2022-11-21T12:11:48.927Z,100187.63
2022-11-21T12:14:51.520Z,100183.53
2022-11-21T12:17:28.539Z,100177.44
2022-11-21T12:20:00.593Z,100162.22
2022-11-21T12:22:29.744Z,100154.50
2022-11-21T12:24:58.824Z,100156.66
2022-11-21T12:27:32.164Z,100154.22
2022-11-21T12:30:52.336Z,100145.03
2022-11-21T12:33:24.919Z,100142.41
2022-11-21T12:36:24.002Z,100142.06
2022-11-21T12:39:17.371Z,100141.81
2022-11-21T12:42:13.687Z,100137.69
2022-11-21T12:45:01.893Z,100127.72
2022-11-21T12:48:08.610Z,100131.31
2022-11-21T12:51:06.249Z,100125.63
2022-11-21T12:53:59.769Z,100119.28
2022-11-21T12:56:38.864Z,100115.41
2022-11-21T12:59:13.296Z,100119.25
2022-11-21T13:01:51.610Z,100105.25
2022-11-21T13:04:25.632Z,100105.06
2022-11-21T13:06:58.680Z,100103.16
2022-11-21T13:09:33.142Z,100105.38
2022-11-21T13:12:07.881Z,100102.19
2022-11-21T13:14:48.286Z,100098.72
2022-11-21T13:17:39.424Z,100101.50
2022-11-21T13:20:20.203Z,100097.50
2022-11-21T13:22:56.195Z,100090.97
2022-11-21T13:25:47.490Z,100089.88
2022-11-21T13:28:34.511Z,100090.75
2022-11-21T13:31:26.903Z,100080.13
2022-11-21T13:33:56.258Z,100093.09
2022-11-21T13:36:42.992Z,100087.00
2022-11-21T13:39:38.741Z,100088.75
2022-11-21T13:42:32.346Z,100084.31
2022-11-21T13:45:43.479Z,100083.72
2022-11-21T13:48:39.239Z,100078.53
2022-11-21T13:51:37.546Z,100084.16
2022-11-21T13:54:33.603Z,100082.44
2022-11-21T13:57:15.227Z,100084.31
2022-11-21T14:00:01.512Z,100087.69
2022-11-21T14:02:48.672Z,100097.50
2022-11-21T14:05:57.846Z,100098.63
2022-11-21T14:08:29.006Z,100088.97
2022-11-21T14:10:58.826Z,100090.00
2022-11-21T14:13:32.265Z,100096.16
2022-11-21T14:16:25.092Z,100094.69
2022-11-21T14:18:55.271Z,100085.56
2022-11-21T14:21:27.991Z,100097.00
2022-11-21T14:23:59.780Z,100096.44
2022-11-21T14:26:32.777Z,100097.81
2022-11-21T14:29:22.756Z,100098.06
2022-11-21T14:31:52.267Z,100098.78
2022-11-21T14:34:29.446Z,100097.66
2022-11-21T14:37:01.512Z,100108.31
2022-11-21T14:39:39.846Z,100099.66
2022-11-21T14:42:15.813Z,100097.44
2022-11-21T14:44:46.272Z,100092.09
2022-11-21T14:47:23.424Z,100085.78
2022-11-21T14:50:02.280Z,100084.41
2022-11-21T14:52:35.937Z,100091.94
2022-11-21T14:55:29.155Z,100085.28
2022-11-21T14:57:56.832Z,100090.94
2022-11-21T15:00:59.235Z,100086.03
2022-11-21T15:03:21.963Z,100082.13
2022-11-21T15:06:05.910Z,100085.03
2022-11-21T15:11:35.946Z,100079.06
2022-11-21T15:14:16.012Z,100070.00
2022-11-21T15:16:49.470Z,100070.94
2022-11-21T15:19:27.505Z,100068.59
2022-11-21T15:21:58.780Z,100064.41
2022-11-21T15:24:37.380Z,100071.41
2022-11-21T15:27:29.235Z,100080.63
2022-11-21T15:30:29.116Z,100076.63
2022-11-21T15:33:08.690Z,100077.94
2022-11-21T15:35:44.388Z,100070.31
2022-11-21T15:38:23.315Z,100070.38
2022-11-21T15:41:04.598Z,100072.34
2022-11-21T15:43:42.532Z,100057.84
2022-11-21T15:46:17.630Z,100064.38
2022-11-21T15:48:49.165Z,100053.84
2022-11-21T15:51:27.231Z,100048.56
2022-11-21T15:54:11.993Z,100050.78
2022-11-21T15:56:41.353Z,100057.19
2022-11-21T15:59:10.804Z,100056.97
2022-11-21T16:01:40.116Z,100050.72
2022-11-21T16:04:12.219Z,100057.00
2022-11-21T16:06:41.790Z,100052.91
2022-11-21T16:09:10.919Z,100047.31
2022-11-21T16:11:40.525Z,100050.66
2022-11-21T16:14:10.184Z,100041.44
2022-11-21T16:16:43.187Z,100043.28
2022-11-21T16:19:15.384Z,100048.38
2022-11-21T16:21:44.705Z,100037.22
2022-11-21T16:24:13.842Z,100036.91
2022-11-21T16:26:42.893Z,100036.97
2022-11-21T16:29:12.601Z,100029.72
2022-11-21T16:31:41.650Z,100025.09
2022-11-21T16:34:10.694Z,100022.00
2022-11-21T16:36:41.238Z,100019.69
2022-11-21T16:39:16.618Z,100015.25
2022-11-21T16:41:48.981Z,100011.41
2022-11-21T16:44:18.629Z,100014.06
2022-11-21T16:46:51.487Z,100015.19
2022-11-21T16:49:20.621Z,100017.69
2022-11-21T16:51:51.125Z,100013.28
2022-11-21T16:54:20.220Z,100015.59
2022-11-21T16:56:49.295Z,100006.47
2022-11-21T16:59:18.377Z,99997.13
2022-11-21T17:01:47.533Z,99996.53
2022-11-21T17:04:17.671Z,100000.16
2022-11-21T17:06:48.867Z,99997.81
2022-11-21T17:09:19.336Z,100003.78
2022-11-21T17:11:48.430Z,100002.31
2022-11-21T17:14:17.455Z,100008.34
2022-11-21T17:16:48.753Z,100011.75
2022-11-21T17:19:17.928Z,100020.03
2022-11-21T17:21:47.036Z,100028.97
2022-11-21T17:24:16.767Z,100031.25
2022-11-21T17:26:47.200Z,100029.44
2022-11-21T17:29:16.308Z,100035.94
2022-11-21T17:31:45.331Z,100035.69
2022-11-21T17:34:15.410Z,100031.59
2022-11-21T17:36:44.459Z,100032.91
2022-11-21T17:39:13.703Z,100032.06
2022-11-21T17:41:42.755Z,100029.53
2022-11-21T17:44:16.200Z,100029.00
2022-11-21T17:46:45.324Z,100021.56
2022-11-21T17:49:14.504Z,100026.66
2022-11-21T17:51:43.892Z,100024.97
2022-11-21T17:54:13.014Z,100031.59
2022-11-21T17:56:46.615Z,100025.56
2022-11-21T17:59:19.707Z,100023.34
2022-11-21T18:01:48.888Z,100017.00
2022-11-21T18:04:18.391Z,100006.25
2022-11-21T18:06:47.497Z,100007.25
2022-11-21T18:09:17.509Z,100007.25
2022-11-21T18:11:46.757Z,100006.34
2022-11-21T18:14:16.588Z,99997.44
2022-11-21T18:16:52.719Z,99999.47
2022-11-21T18:19:24.100Z,99992.66
2022-11-21T18:21:53.267Z,99984.91
2022-11-21T18:24:22.436Z,99986.63
2022-11-21T18:26:51.795Z,99985.84
2022-11-21T18:29:38.239Z,99977.63
2022-11-21T18:32:08.842Z,99977.53
2022-11-21T18:34:37.892Z,99969.00
2022-11-21T18:37:07.045Z,99969.44
2022-11-21T18:39:36.156Z,99966.19
2022-11-21T18:42:05.232Z,99965.34
2022-11-21T18:44:34.283Z,99963.63
2022-11-21T18:47:19.403Z,99961.47
2022-11-21T18:49:50.758Z,99952.19
2022-11-21T18:52:19.825Z,99941.13
2022-11-21T18:54:48.889Z,99936.88
2022-11-21T18:57:18.084Z,99935.31
2022-11-21T18:59:47.231Z,99942.53
2022-11-21T19:02:16.468Z,99929.50
2022-11-21T19:04:45.518Z,99920.31
2022-11-21T19:07:16.043Z,99918.38
2022-11-21T19:09:46.448Z,99911.50
2022-11-21T19:12:16.390Z,99903.38
2022-11-21T19:14:45.507Z,99903.31
2022-11-21T19:17:14.962Z,99895.47
2022-11-21T19:19:44.371Z,99884.69
2022-11-21T19:22:15.055Z,99888.63
2022-11-21T19:24:44.161Z,99884.00
2022-11-21T19:27:15.576Z,99883.16
2022-11-21T19:29:45.012Z,99875.41
2022-11-21T19:32:14.620Z,99870.91
2022-11-21T19:34:44.017Z,99864.03
2022-11-21T19:37:13.109Z,99861.16
2022-11-21T19:39:46.789Z,99854.50
2022-11-21T19:42:15.827Z,99859.06
2022-11-21T19:44:45.071Z,99852.91
2022-11-21T19:47:14.484Z,99844.66
2022-11-21T19:49:44.171Z,99846.25
2022-11-21T19:52:13.633Z,99849.50
2022-11-21T19:54:47.399Z,99855.81
2022-11-21T19:57:18.090Z,99850.63
2022-11-21T19:59:47.562Z,99856.59
2022-11-21T20:02:19.050Z,99856.50
2022-11-21T20:04:48.538Z,99854.03
2022-11-21T20:07:18.076Z,99858.13
2022-11-21T20:09:48.270Z,99858.25
2022-11-21T20:12:21.576Z,99858.13
2022-11-21T20:14:50.663Z,99870.19
2022-11-21T20:17:19.956Z,99870.81
2022-11-21T20:19:51.412Z,99864.91
2022-11-21T20:22:20.496Z,99851.47
2022-11-21T20:24:51.913Z,99853.47
2022-11-21T20:27:22.878Z,99864.34
2022-11-21T20:29:52.040Z,99870.31
2022-11-21T20:32:21.115Z,99867.28
2022-11-21T20:34:51.400Z,99874.84
2022-11-21T20:37:20.687Z,99866.81
2022-11-21T20:39:49.746Z,99868.38
2022-11-21T20:42:18.871Z,99863.25
2022-11-21T20:47:38.730Z,99873.59
2022-11-21T20:50:08.700Z,99868.31
2022-11-21T20:55:27.306Z,99887.41
2022-11-21T20:57:56.797Z,99888.25
2022-11-21T21:00:28.546Z,99887.75
2022-11-21T21:02:57.574Z,99894.88
2022-11-21T21:05:26.881Z,99897.94
2022-11-21T21:07:56.187Z,99892.38
2022-11-21T21:10:26.598Z,99885.66
2022-11-21T21:12:55.973Z,99886.34
2022-11-21T21:15:26.867Z,99884.00
2022-11-21T21:17:56.117Z,99883.84
2022-11-21T21:20:25.604Z,99885.19
2022-11-21T21:22:56.376Z,99874.25
2022-11-21T21:25:25.768Z,99871.88
2022-11-21T21:27:56.702Z,99868.69
2022-11-21T21:30:27.604Z,99869.78
2022-11-21T21:32:56.665Z,99862.88
2022-11-21T21:35:25.951Z,99846.44
2022-11-21T21:37:55.038Z,99842.59
2022-11-21T21:40:24.093Z,99841.91
2022-11-21T21:42:54.484Z,99841.44
2022-11-21T21:45:23.842Z,99837.31
2022-11-21T21:47:54.187Z,99825.69
2022-11-21T21:50:23.593Z,99825.97
2022-11-21T21:52:52.635Z,99826.09
2022-11-21T21:55:21.778Z,99830.41
2022-11-21T21:57:52.558Z,99835.19
2022-11-21T22:00:21.934Z,99825.28
2022-11-21T22:02:51.056Z,99838.47
2022-11-21T22:05:21.544Z,99835.75
2022-11-21T22:07:50.698Z,99827.09
2022-11-21T22:10:19.792Z,99832.03
2022-11-21T22:12:49.506Z,99841.34
2022-11-21T22:15:18.592Z,99843.72
2022-11-21T22:17:48.024Z,99840.53
2022-11-21T22:20:17.649Z,99843.91
2022-11-21T22:22:48.063Z,99854.81
2022-11-21T22:25:17.353Z,99856.97
2022-11-21T22:27:46.454Z,99869.66
2022-11-21T22:30:15.749Z,99871.06
2022-11-21T22:32:44.877Z,99862.47
2022-11-21T22:35:14.152Z,99856.28
2022-11-21T22:37:43.209Z,99861.38
2022-11-21T22:40:15.064Z,99857.81
2022-11-21T22:42:44.124Z,99854.28
2022-11-21T22:45:13.429Z,99845.59
2022-11-21T22:47:47.790Z,99842.03
2022-11-21T22:50:17.634Z,99843.94
2022-11-21T22:52:46.722Z,99836.16
2022-11-21T22:55:17.444Z,99830.19
2022-11-21T22:57:46.696Z,99834.13
2022-11-21T23:00:17.138Z,99824.69
2022-11-21T23:02:46.188Z,99812.00
2022-11-21T23:05:15.282Z,99817.06
2022-11-21T23:07:44.927Z,99820.41
2022-11-21T23:10:14.114Z,99820.31
2022-11-21T23:12:45.846Z,99822.81
2022-11-21T23:15:15.070Z,99818.56
2022-11-21T23:17:47.179Z,99813.22
2022-11-21T23:20:20.153Z,99815.72
2022-11-21T23:22:49.259Z,99810.25
2022-11-21T23:25:18.449Z,99799.31
2022-11-21T23:27:48.859Z,99804.56
2022-11-21T23:30:18.165Z,99805.28
2022-11-21T23:32:47.569Z,99793.22
2022-11-21T23:35:16.735Z,99802.56
2022-11-21T23:37:45.848Z,99800.00
2022-11-21T23:40:15.315Z,99796.53
2022-11-21T23:42:46.060Z,99789.66
2022-11-21T23:45:16.866Z,99795.53
2022-11-21T23:47:46.041Z,99787.16
2022-11-21T23:50:15.622Z,99787.16
2022-11-21T23:52:44.868Z,99777.66
2022-11-21T23:55:13.950Z,99772.56
2022-11-21T23:57:43.496Z,99755.38
